createdAt,value
2017-05-02T00:39:32.200Z,1009.33
2017-05-02T00:44:27.802Z,1009.25
2017-05-02T00:49:24.602Z,1009.13
2017-05-02T00:54:23.601Z,1009.06
2017-05-02T00:59:23.364Z,1009.03
2017-05-02T01:19:29.228Z,1009.10
2017-05-02T01:34:26.917Z,1009.02
2017-05-02T01:39:24.342Z,1009.08
2017-05-02T01:49:21.733Z,1009.05
2017-05-02T01:54:18.343Z,1009.10
2017-05-02T01:59:18.757Z,1008.95
2017-05-02T02:04:17.761Z,1009.08
2017-05-02T02:24:21.014Z,1009.02
2017-05-02T02:39:22.936Z,1008.87
2017-05-02T03:04:25.937Z,1008.87
2017-05-02T03:09:22.456Z,1008.83
2017-05-02T03:14:21.627Z,1008.89
2017-05-02T03:19:19.691Z,1008.84
2017-05-02T03:44:28.522Z,1008.85
2017-05-02T03:49:22.705Z,1008.85
2017-05-02T03:59:27.243Z,1008.87
2017-05-02T04:04:22.685Z,1008.79
2017-05-02T04:19:20.720Z,1008.84
2017-05-02T04:24:16.082Z,1008.82
2017-05-02T04:34:20.737Z,1008.90
2017-05-02T04:39:16.963Z,1008.88
2017-05-02T04:44:22.017Z,1008.85
2017-05-02T04:49:16.286Z,1008.93
2017-05-02T04:54:12.672Z,1008.92
2017-05-02T04:59:10.743Z,1008.98
2017-05-02T05:04:06.171Z,1008.95
2017-05-02T05:19:02.467Z,1009.00
2017-05-02T05:24:07.230Z,1009.06
2017-05-02T05:29:01.738Z,1009.00
2017-05-02T05:33:58.805Z,1008.98
2017-05-02T05:38:54.084Z,1009.02
2017-05-02T05:53:54.081Z,1008.85
2017-05-02T05:58:50.964Z,1008.86
2017-05-02T06:03:50.004Z,1008.91
2017-05-02T06:08:46.837Z,1008.92
2017-05-02T06:13:42.185Z,1008.87
2017-05-02T06:18:38.565Z,1008.80
2017-05-02T06:23:36.700Z,1008.84
2017-05-02T06:28:35.062Z,1008.84
2017-05-02T06:38:31.520Z,1008.92
2017-05-02T06:53:32.739Z,1008.97
2017-05-02T07:08:33.650Z,1009.09
2017-05-02T07:13:29.304Z,1009.03
2017-05-02T07:18:26.721Z,1009.03
2017-05-02T07:23:22.890Z,1008.98
2017-05-02T07:28:21.561Z,1009.08
2017-05-02T07:33:17.827Z,1009.16
2017-05-02T07:38:14.546Z,1009.14
2017-05-02T07:43:10.779Z,1009.17
2017-05-02T07:53:08.165Z,1009.18
2017-05-02T07:58:04.336Z,1009.28
2017-05-02T08:03:00.446Z,1009.34
2017-05-02T08:07:55.903Z,1009.33
2017-05-02T08:12:55.687Z,1009.30
2017-05-02T08:17:50.577Z,1009.39
2017-05-02T08:22:46.886Z,1009.31
2017-05-02T08:27:43.042Z,1009.43
2017-05-02T08:32:39.028Z,1009.49
2017-05-02T08:37:37.151Z,1009.39
2017-05-02T08:42:34.325Z,1009.46
2017-05-02T08:47:31.726Z,1009.44
2017-05-02T08:52:27.878Z,1009.48
2017-05-02T08:57:23.743Z,1009.42
2017-05-02T09:02:19.496Z,1009.45
2017-05-02T09:07:15.445Z,1009.43
2017-05-02T09:12:11.076Z,1009.48
2017-05-02T09:17:06.065Z,1009.39
2017-05-02T09:22:01.616Z,1009.45
2017-05-02T09:26:57.437Z,1009.48
2017-05-02T09:31:53.220Z,1009.38
2017-05-02T09:36:48.753Z,1009.45
2017-05-02T09:41:45.089Z,1009.38
2017-05-02T09:46:43.175Z,1009.40
2017-05-02T09:51:37.998Z,1009.19
2017-05-02T09:56:33.736Z,1009.25
2017-05-02T10:01:34.305Z,1009.15
2017-05-02T10:06:28.938Z,1009.20
2017-05-02T10:11:24.388Z,1009.16
2017-05-02T10:16:20.005Z,1009.08
2017-05-02T10:26:18.246Z,1008.97
2017-05-02T10:31:14.191Z,1009.04
2017-05-02T10:36:10.614Z,1009.19
2017-05-02T10:41:06.951Z,1009.14
2017-05-02T10:46:03.172Z,1009.30
2017-05-02T10:56:01.672Z,1009.12
2017-05-02T11:00:57.333Z,1009.04
2017-05-02T11:05:54.476Z,1009.07
2017-05-02T11:10:51.876Z,1009.06
2017-05-02T11:15:47.423Z,1009.07
2017-05-02T11:20:43.647Z,1009.13
2017-05-02T11:25:42.189Z,1009.12
2017-05-02T11:30:37.306Z,1009.23
2017-05-02T11:40:37.632Z,1009.05
2017-05-02T11:50:32.855Z,1009.09
2017-05-02T11:55:27.751Z,1009.10
2017-05-02T12:00:25.191Z,1009.06
2017-05-02T12:05:21.490Z,1009.09
2017-05-02T12:10:17.218Z,1008.98
2017-05-02T12:15:11.870Z,1009.09
2017-05-02T12:20:06.592Z,1009.18
2017-05-02T12:25:02.630Z,1009.17
2017-05-02T12:29:57.848Z,1009.19
2017-05-02T12:34:53.362Z,1009.21
2017-05-02T12:39:49.219Z,1009.30
2017-05-02T12:44:45.082Z,1009.41
2017-05-02T12:49:40.917Z,1009.47
2017-05-02T12:59:39.768Z,1009.59
2017-05-02T13:04:35.306Z,1009.84
2017-05-02T13:09:30.447Z,1009.81
2017-05-02T13:14:26.088Z,1009.88
2017-05-02T13:19:21.465Z,1009.95
2017-05-02T13:24:19.572Z,1009.90
2017-05-02T13:29:14.309Z,1009.87
2017-05-02T13:34:10.452Z,1009.91
2017-05-02T13:39:06.284Z,1009.96
2017-05-02T13:44:03.433Z,1010.11
2017-05-02T13:48:59.033Z,1010.03
2017-05-02T13:53:54.509Z,1010.13
2017-05-02T13:58:50.286Z,1010.11
2017-05-02T14:03:47.431Z,1010.16
2017-05-02T14:08:42.878Z,1010.10
2017-05-02T14:13:40.017Z,1010.24
2017-05-02T14:18:35.375Z,1010.25
2017-05-02T14:23:31.122Z,1010.32
2017-05-02T14:28:29.197Z,1010.43
2017-05-02T14:33:25.891Z,1010.49
2017-05-02T14:38:22.002Z,1010.37
2017-05-02T14:43:20.621Z,1010.48
2017-05-02T14:48:15.611Z,1010.51
2017-05-02T14:53:11.699Z,1010.52
2017-05-02T14:58:07.811Z,1010.50
2017-05-02T15:03:05.074Z,1010.54
2017-05-02T15:08:01.297Z,1010.52
2017-05-02T15:12:56.960Z,1010.56
2017-05-02T15:17:53.403Z,1010.49
2017-05-02T15:27:52.309Z,1010.45
2017-05-02T15:32:48.717Z,1010.46
2017-05-02T15:37:43.796Z,1010.45
2017-05-02T15:42:39.436Z,1010.35
2017-05-02T15:47:35.427Z,1010.35
2017-05-02T15:52:32.482Z,1010.30
2017-05-02T15:57:27.909Z,1010.28
2017-05-02T16:02:24.668Z,1010.24
2017-05-02T16:07:21.410Z,1010.29
2017-05-02T16:12:16.970Z,1010.29
2017-05-02T16:17:12.657Z,1010.24
2017-05-02T16:22:08.329Z,1010.23
2017-05-02T16:27:04.111Z,1010.15
2017-05-02T16:31:59.995Z,1010.15
2017-05-02T16:36:56.191Z,1010.25
2017-05-02T16:41:51.596Z,1010.15
2017-05-02T16:46:47.089Z,1010.23
2017-05-02T16:51:43.133Z,1010.09
2017-05-02T16:56:41.880Z,1010.22
2017-05-02T17:01:36.875Z,1010.17
2017-05-02T17:06:32.613Z,1010.15
2017-05-02T17:11:31.133Z,1010.19
2017-05-02T17:16:25.908Z,1010.23
2017-05-02T17:21:22.891Z,1010.10
2017-05-02T17:26:19.236Z,1010.16
2017-05-02T17:31:15.660Z,1010.19
2017-05-02T17:36:10.985Z,1010.15
2017-05-02T17:41:07.248Z,1010.16
2017-05-02T17:46:02.730Z,1010.16
2017-05-02T17:50:59.248Z,1010.18
2017-05-02T17:55:54.787Z,1010.19
2017-05-02T18:00:56.099Z,1010.21
2017-05-02T18:05:50.731Z,1010.24
2017-05-02T18:10:47.712Z,1010.18
2017-05-02T18:15:46.289Z,1010.20
2017-05-02T18:20:41.650Z,1010.21
2017-05-02T18:25:37.166Z,1010.37
2017-05-02T18:30:37.200Z,1010.42
2017-05-02T18:35:32.925Z,1010.43
2017-05-02T18:40:28.632Z,1010.48
2017-05-02T18:45:23.959Z,1010.55
2017-05-02T18:50:21.975Z,1010.48
2017-05-02T18:55:18.845Z,1010.51
2017-05-02T19:00:15.075Z,1010.61
2017-05-02T19:05:12.073Z,1010.60
2017-05-02T19:10:08.531Z,1010.65
2017-05-02T19:15:10.095Z,1010.61
2017-05-02T19:20:04.482Z,1010.70
2017-05-02T19:25:00.008Z,1010.79
2017-05-02T19:29:56.809Z,1010.75
2017-05-02T19:34:52.550Z,1010.74
2017-05-02T19:39:48.279Z,1010.68
2017-05-02T19:44:43.993Z,1010.67
2017-05-02T19:49:39.616Z,1010.66
2017-05-02T19:54:36.186Z,1010.78
2017-05-02T19:59:32.406Z,1010.87
2017-05-02T20:04:27.995Z,1010.76
2017-05-02T20:09:23.778Z,1010.76
2017-05-02T20:14:19.995Z,1010.75
2017-05-02T20:19:15.398Z,1010.77
2017-05-02T20:24:10.917Z,1010.82
2017-05-02T20:29:07.521Z,1010.84
2017-05-02T20:34:02.937Z,1010.88
2017-05-02T20:39:00.819Z,1010.87
2017-05-02T20:43:55.683Z,1010.87
2017-05-02T20:48:51.112Z,1010.97
2017-05-02T20:53:46.799Z,1010.93
2017-05-02T20:58:42.565Z,1010.88
2017-05-02T21:03:38.196Z,1010.95
2017-05-02T21:08:34.145Z,1010.99
2017-05-02T21:13:30.038Z,1010.88
2017-05-02T21:18:25.957Z,1010.95
2017-05-02T21:23:21.549Z,1010.99
2017-05-02T21:28:17.135Z,1011.08
2017-05-02T21:33:12.678Z,1011.14
2017-05-02T21:38:08.641Z,1011.04
2017-05-02T21:43:04.502Z,1011.02
2017-05-02T21:48:00.236Z,1011.13
2017-05-02T21:52:57.418Z,1011.00
2017-05-02T21:57:53.028Z,1011.09
2017-05-02T22:02:48.762Z,1011.06
2017-05-02T22:07:44.500Z,1011.03
2017-05-02T22:12:40.257Z,1011.06
2017-05-02T22:17:36.353Z,1011.01
2017-05-02T22:22:31.763Z,1010.99
2017-05-02T22:27:27.564Z,1011.07
2017-05-02T22:32:23.221Z,1011.14
2017-05-02T22:37:18.847Z,1011.07
2017-05-02T22:42:14.528Z,1011.03
2017-05-02T22:47:10.082Z,1011.02
2017-05-02T22:52:06.798Z,1010.98
2017-05-02T22:57:02.608Z,1010.91
2017-05-02T23:01:57.818Z,1010.84
2017-05-02T23:06:53.426Z,1010.89
2017-05-02T23:11:49.063Z,1010.75
2017-05-02T23:16:44.520Z,1010.91
2017-05-02T23:21:40.248Z,1010.81
2017-05-02T23:26:35.945Z,1010.78
2017-05-02T23:31:31.653Z,1010.87
2017-05-02T23:36:27.342Z,1010.85
2017-05-02T23:41:23.047Z,1010.88
2017-05-02T23:46:19.111Z,1010.86
2017-05-02T23:51:14.808Z,1010.90
2017-05-02T23:56:10.370Z,1010.90
